createdAt,value
2018-10-16T00:01:34.918Z,99.90
2018-10-16T00:04:03.648Z,99.90
2018-10-16T00:06:32.782Z,99.90
2018-10-16T00:09:01.658Z,99.90
2018-10-16T00:11:30.510Z,99.90
2018-10-16T00:13:59.359Z,99.90
2018-10-16T00:16:28.353Z,99.90
2018-10-16T00:18:57.056Z,99.90
2018-10-16T00:21:25.783Z,99.90
2018-10-16T00:23:55.409Z,99.90
2018-10-16T00:26:26.162Z,99.90
2018-10-16T00:28:55.584Z,99.90
2018-10-16T00:31:24.638Z,99.90
2018-10-16T00:33:53.882Z,99.90
2018-10-16T00:36:22.802Z,99.90
2018-10-16T00:38:51.654Z,99.90
2018-10-16T00:41:20.998Z,99.90
2018-10-16T00:43:50.258Z,99.90
2018-10-16T00:46:20.882Z,99.90
2018-10-16T00:48:49.734Z,99.90
2018-10-16T00:51:18.513Z,99.90
2018-10-16T00:53:47.490Z,99.90
2018-10-16T00:56:16.731Z,99.90
2018-10-16T00:58:46.515Z,99.90
2018-10-16T01:01:19.181Z,99.90
2018-10-16T01:03:48.171Z,99.90
2018-10-16T01:06:16.858Z,99.90
2018-10-16T01:08:45.677Z,99.90
2018-10-16T01:11:14.763Z,99.90
2018-10-16T01:13:43.772Z,99.90
2018-10-16T01:16:13.081Z,99.90
2018-10-16T01:18:41.782Z,99.90
2018-10-16T01:21:13.936Z,99.90
2018-10-16T01:23:43.088Z,99.90
2018-10-16T01:26:11.972Z,99.90
2018-10-16T01:28:40.742Z,99.90
2018-10-16T01:31:09.842Z,99.90
2018-10-16T01:33:40.769Z,99.90
2018-10-16T01:36:11.285Z,99.90
2018-10-16T01:38:40.229Z,99.90
2018-10-16T01:41:12.507Z,99.90
2018-10-16T01:43:41.359Z,99.90
2018-10-16T01:46:10.530Z,99.90
2018-10-16T01:48:40.139Z,99.90
2018-10-16T01:51:10.366Z,99.90
2018-10-16T01:53:40.810Z,99.90
2018-10-16T01:56:09.873Z,99.90
2018-10-16T01:58:38.805Z,99.90
2018-10-16T02:01:11.560Z,99.90
2018-10-16T02:03:41.003Z,99.90
2018-10-16T02:06:09.824Z,99.90
2018-10-16T02:08:38.794Z,99.90
2018-10-16T02:11:07.834Z,99.90
2018-10-16T02:13:37.717Z,99.90
2018-10-16T02:16:06.588Z,99.90
2018-10-16T02:18:35.448Z,99.90
2018-10-16T02:21:04.872Z,99.90
2018-10-16T02:23:34.208Z,99.90
2018-10-16T02:26:03.484Z,99.90
2018-10-16T02:28:32.522Z,99.90
2018-10-16T02:31:01.802Z,99.90
2018-10-16T02:33:30.904Z,99.90
2018-10-16T02:36:00.010Z,99.90
2018-10-16T02:38:29.159Z,99.90
2018-10-16T02:40:58.049Z,99.90
2018-10-16T02:43:26.836Z,99.90
2018-10-16T02:45:55.868Z,99.90
2018-10-16T02:48:25.090Z,99.90
2018-10-16T02:50:53.326Z,99.90
2018-10-16T02:53:21.933Z,99.90
2018-10-16T02:55:50.306Z,99.90
2018-10-16T02:58:18.641Z,99.90
2018-10-16T03:00:46.896Z,99.90
2018-10-16T03:03:15.105Z,99.90
2018-10-16T03:05:43.518Z,99.90
2018-10-16T03:08:11.769Z,99.90
2018-10-16T03:10:40.008Z,99.90
2018-10-16T03:13:10.588Z,99.90
2018-10-16T03:15:38.776Z,99.90
2018-10-16T03:18:06.970Z,99.90
2018-10-16T03:20:35.435Z,99.90
2018-10-16T03:23:03.586Z,99.90
2018-10-16T03:25:32.066Z,99.90
2018-10-16T03:28:00.433Z,99.90
2018-10-16T03:30:28.796Z,99.90
2018-10-16T03:32:57.173Z,99.90
2018-10-16T03:35:25.693Z,99.90
2018-10-16T03:37:53.942Z,99.90
2018-10-16T03:40:22.165Z,99.90
2018-10-16T03:42:50.458Z,99.90
2018-10-16T03:45:18.664Z,99.90
2018-10-16T03:47:47.691Z,99.90
2018-10-16T03:50:15.896Z,99.90
2018-10-16T03:52:44.101Z,99.90
2018-10-16T03:55:12.296Z,99.90
2018-10-16T03:57:40.559Z,99.90
2018-10-16T04:00:09.525Z,99.90
2018-10-16T04:02:37.944Z,99.90
2018-10-16T04:05:06.290Z,99.90
2018-10-16T04:07:34.844Z,99.90
2018-10-16T04:10:03.121Z,99.90
2018-10-16T04:12:31.333Z,99.90
2018-10-16T04:14:59.718Z,99.90
2018-10-16T04:17:28.395Z,99.90
2018-10-16T04:19:56.639Z,99.90
2018-10-16T04:22:27.045Z,99.90
2018-10-16T04:24:55.245Z,99.90
2018-10-16T04:27:23.635Z,99.90
2018-10-16T04:29:51.945Z,99.90
2018-10-16T04:32:20.201Z,99.90
2018-10-16T04:34:48.452Z,99.90
2018-10-16T04:37:16.658Z,99.90
2018-10-16T04:39:44.889Z,99.90
2018-10-16T04:42:14.534Z,99.90
2018-10-16T04:44:42.817Z,99.90
2018-10-16T04:47:11.017Z,99.90
2018-10-16T04:49:39.492Z,99.90
2018-10-16T04:52:07.710Z,99.90
2018-10-16T04:54:35.937Z,99.90
2018-10-16T04:57:04.284Z,99.90
2018-10-16T04:59:32.493Z,99.90
2018-10-16T05:02:00.782Z,99.90
2018-10-16T05:04:29.378Z,99.90
2018-10-16T05:07:00.091Z,99.90
2018-10-16T05:09:28.982Z,99.90
2018-10-16T05:11:57.859Z,99.90
2018-10-16T05:14:26.157Z,99.90
2018-10-16T05:16:55.304Z,99.90
2018-10-16T05:19:23.505Z,99.90
2018-10-16T05:21:53.280Z,99.90
2018-10-16T05:24:21.507Z,99.90
2018-10-16T05:26:49.774Z,99.90
2018-10-16T05:29:18.688Z,99.90
2018-10-16T05:31:47.133Z,99.90
2018-10-16T05:34:16.584Z,99.90
2018-10-16T05:36:45.182Z,99.90
2018-10-16T05:39:13.481Z,99.90
2018-10-16T05:41:42.903Z,99.90
2018-10-16T05:44:11.191Z,99.90
2018-10-16T05:46:39.485Z,99.90
2018-10-16T05:49:07.820Z,99.90
2018-10-16T05:51:36.094Z,99.90
2018-10-16T05:54:05.622Z,99.90
2018-10-16T05:56:34.067Z,99.90
2018-10-16T05:59:03.936Z,99.90
2018-10-16T06:01:32.142Z,99.90
2018-10-16T06:04:00.409Z,99.90
2018-10-16T06:06:28.859Z,99.90
2018-10-16T06:08:57.102Z,99.90
2018-10-16T06:11:25.425Z,99.90
2018-10-16T06:13:53.796Z,99.90
2018-10-16T06:16:22.928Z,99.90
2018-10-16T06:18:51.369Z,99.90
2018-10-16T06:21:19.758Z,99.90
2018-10-16T06:23:47.978Z,99.90
2018-10-16T06:26:16.233Z,99.90
2018-10-16T06:28:44.404Z,99.90
2018-10-16T06:31:13.084Z,99.90
2018-10-16T06:33:42.822Z,99.90
2018-10-16T06:36:11.289Z,99.90
2018-10-16T06:38:39.484Z,99.90
2018-10-16T06:41:07.840Z,99.90
2018-10-16T06:43:36.056Z,99.90
2018-10-16T06:46:04.937Z,99.90
2018-10-16T06:48:33.568Z,99.90
2018-10-16T06:51:02.058Z,99.90
2018-10-16T06:53:33.593Z,99.90
2018-10-16T06:56:02.284Z,99.90
2018-10-16T06:58:31.705Z,99.90
2018-10-16T07:00:59.937Z,99.90
2018-10-16T07:03:28.379Z,99.90
2018-10-16T07:05:56.704Z,99.90
2018-10-16T07:08:25.141Z,99.90
2018-10-16T07:10:53.821Z,99.90
2018-10-16T07:13:22.332Z,99.90
2018-10-16T07:15:50.796Z,99.90
2018-10-16T07:18:19.335Z,99.90
2018-10-16T07:20:47.762Z,99.90
2018-10-16T07:23:16.139Z,99.90
2018-10-16T07:25:45.054Z,99.90
2018-10-16T07:28:14.673Z,99.90
2018-10-16T07:30:44.557Z,99.90
2018-10-16T07:33:12.867Z,99.90
2018-10-16T07:35:41.301Z,99.90
2018-10-16T07:38:09.645Z,99.90
2018-10-16T07:40:38.557Z,99.90
2018-10-16T07:43:08.582Z,99.90
2018-10-16T07:45:37.405Z,99.90
2018-10-16T07:48:06.811Z,99.50
2018-10-16T07:50:35.158Z,99.10
2018-10-16T07:53:03.463Z,98.70
2018-10-16T07:55:31.704Z,98.70
2018-10-16T07:58:01.264Z,98.10
2018-10-16T08:00:30.033Z,97.80
2018-10-16T08:02:58.865Z,97.70
2018-10-16T08:05:27.377Z,97.40
2018-10-16T08:07:56.458Z,96.70
2018-10-16T08:10:24.701Z,96.20
2018-10-16T08:12:53.005Z,95.60
2018-10-16T08:15:21.309Z,95.10
2018-10-16T08:17:49.671Z,94.90
2018-10-16T08:20:18.033Z,94.80
2018-10-16T08:22:46.386Z,94.40
2018-10-16T08:25:14.663Z,94.20
2018-10-16T08:27:46.469Z,93.60
2018-10-16T08:30:14.763Z,93.30
2018-10-16T08:32:43.097Z,93.40
2018-10-16T08:35:11.898Z,93.00
2018-10-16T08:38:52.339Z,92.60
2018-10-16T08:41:26.649Z,92.70
2018-10-16T08:44:06.977Z,92.10
2018-10-16T08:46:47.018Z,92.30
2018-10-16T08:49:26.644Z,92.40
2018-10-16T08:51:56.460Z,92.50
2018-10-16T08:54:25.240Z,92.60
2018-10-16T08:56:53.507Z,92.90
2018-10-16T08:59:21.714Z,92.70
2018-10-16T09:01:49.897Z,92.40
2018-10-16T09:04:18.157Z,92.20
2018-10-16T09:06:46.466Z,91.90
2018-10-16T09:09:15.835Z,91.80
2018-10-16T09:11:45.465Z,92.10
2018-10-16T09:14:14.383Z,91.90
2018-10-16T09:16:42.557Z,91.90
2018-10-16T09:19:10.799Z,91.70
2018-10-16T09:21:39.235Z,91.50
2018-10-16T09:24:07.641Z,91.10
2018-10-16T09:26:35.881Z,91.00
2018-10-16T09:29:04.621Z,90.70
2018-10-16T09:31:32.813Z,90.70
2018-10-16T09:34:01.233Z,90.40
2018-10-16T09:36:29.481Z,90.00
2018-10-16T09:38:57.712Z,90.00
2018-10-16T09:41:25.906Z,89.80
2018-10-16T09:43:54.126Z,89.10
2018-10-16T09:46:22.352Z,88.80
2018-10-16T09:48:51.406Z,87.70
2018-10-16T09:51:19.749Z,88.40
2018-10-16T09:53:48.155Z,87.00
2018-10-16T09:56:16.937Z,86.30
2018-10-16T09:58:45.557Z,85.90
2018-10-16T10:01:19.286Z,85.30
2018-10-16T10:03:47.610Z,85.00
2018-10-16T10:06:16.113Z,83.10
2018-10-16T10:08:44.340Z,83.20
2018-10-16T10:11:12.685Z,82.30
2018-10-16T10:13:40.993Z,81.10
2018-10-16T10:16:09.266Z,81.20
2018-10-16T10:18:38.107Z,79.80
2018-10-16T10:21:06.373Z,79.40
2018-10-16T10:23:34.714Z,77.90
2018-10-16T10:26:03.038Z,77.40
2018-10-16T10:28:31.292Z,76.90
2018-10-16T10:30:59.553Z,77.00
2018-10-16T10:33:27.774Z,75.90
2018-10-16T10:35:56.005Z,75.40
2018-10-16T10:38:24.199Z,75.20
2018-10-16T10:40:52.480Z,73.90
2018-10-16T10:43:20.767Z,74.40
2018-10-16T10:45:49.009Z,74.80
2018-10-16T10:48:17.699Z,73.00
2018-10-16T10:50:46.172Z,74.00
2018-10-16T10:53:14.173Z,74.30
2018-10-16T10:55:42.610Z,74.30
2018-10-16T10:58:12.291Z,74.00
2018-10-16T11:00:40.648Z,73.90
2018-10-16T11:03:08.944Z,73.50
2018-10-16T11:05:37.539Z,73.30
2018-10-16T11:08:06.005Z,73.10
2018-10-16T11:10:34.829Z,73.30
2018-10-16T11:13:03.435Z,73.50
2018-10-16T11:15:31.787Z,73.60
2018-10-16T11:18:00.076Z,72.60
2018-10-16T11:20:28.292Z,72.50
2018-10-16T11:22:56.817Z,71.30
2018-10-16T11:25:25.428Z,71.10
2018-10-16T11:27:54.663Z,71.80
2018-10-16T11:30:23.126Z,71.30
2018-10-16T11:32:51.370Z,70.70
2018-10-16T11:35:19.545Z,71.00
2018-10-16T11:37:47.737Z,71.20
2018-10-16T11:40:15.954Z,70.50
2018-10-16T11:42:44.350Z,69.30
2018-10-16T11:45:12.599Z,69.50
2018-10-16T11:47:40.809Z,69.20
2018-10-16T11:50:10.498Z,69.20
2018-10-16T11:52:38.995Z,68.30
2018-10-16T11:55:07.867Z,68.90
2018-10-16T11:57:36.361Z,68.50
2018-10-16T12:00:05.146Z,68.30
2018-10-16T12:02:33.906Z,68.30
2018-10-16T12:05:02.462Z,68.10
2018-10-16T12:07:30.826Z,68.00
2018-10-16T12:09:59.222Z,65.90
2018-10-16T12:12:27.590Z,67.20
2018-10-16T12:14:56.093Z,64.90
2018-10-16T12:17:29.749Z,65.30
2018-10-16T12:20:03.556Z,65.60
2018-10-16T12:22:32.034Z,66.10
2018-10-16T12:25:00.312Z,65.40
2018-10-16T12:27:28.717Z,66.30
2018-10-16T12:29:57.447Z,66.10
2018-10-16T12:32:25.917Z,65.80
2018-10-16T12:34:54.326Z,66.20
2018-10-16T12:37:22.662Z,65.60
2018-10-16T12:39:51.294Z,66.20
2018-10-16T12:42:20.000Z,66.00
2018-10-16T12:44:48.678Z,64.30
2018-10-16T12:47:18.118Z,64.30
2018-10-16T12:49:46.707Z,64.60
2018-10-16T12:52:15.610Z,64.40
2018-10-16T12:54:44.088Z,64.80
2018-10-16T12:57:12.592Z,65.50
2018-10-16T12:59:40.926Z,63.60
2018-10-16T13:02:10.667Z,63.80
2018-10-16T13:04:41.337Z,63.60
2018-10-16T13:07:17.710Z,62.70
2018-10-16T13:09:45.918Z,62.50
2018-10-16T13:12:14.458Z,62.30
2018-10-16T13:14:42.701Z,63.10
2018-10-16T13:17:11.637Z,63.10
2018-10-16T13:19:39.991Z,62.40
2018-10-16T13:22:08.414Z,62.80
2018-10-16T13:24:36.664Z,62.70
2018-10-16T13:27:05.616Z,61.80
2018-10-16T13:29:34.462Z,59.80
2018-10-16T13:32:02.981Z,60.10
2018-10-16T13:34:31.412Z,60.30
2018-10-16T13:36:59.826Z,60.30
2018-10-16T13:39:28.346Z,59.70
2018-10-16T13:41:56.533Z,58.80
2018-10-16T13:44:25.561Z,57.00
2018-10-16T13:46:53.820Z,57.80
2018-10-16T13:49:22.339Z,57.80
2018-10-16T13:51:50.553Z,57.50
2018-10-16T13:54:18.925Z,58.40
2018-10-16T13:56:47.367Z,58.70
2018-10-16T13:59:15.587Z,58.80
2018-10-16T14:01:44.315Z,59.20
2018-10-16T14:04:13.794Z,59.40
2018-10-16T14:06:42.043Z,58.70
2018-10-16T14:09:16.265Z,58.10
2018-10-16T14:11:44.646Z,59.20
2018-10-16T14:14:13.085Z,59.40
2018-10-16T14:16:41.618Z,59.50
2018-10-16T14:19:10.112Z,59.30
2018-10-16T14:21:38.724Z,59.50
2018-10-16T14:24:07.418Z,59.10
2018-10-16T14:26:35.858Z,60.10
2018-10-16T14:29:04.388Z,60.60
2018-10-16T14:31:33.980Z,60.60
2018-10-16T14:34:02.273Z,61.10
2018-10-16T14:36:30.634Z,61.10
2018-10-16T14:38:59.122Z,61.10
2018-10-16T14:41:27.800Z,60.60
2018-10-16T14:43:56.111Z,60.10
2018-10-16T14:46:24.361Z,60.70
2018-10-16T14:48:52.857Z,60.60
2018-10-16T14:51:22.012Z,60.80
2018-10-16T14:53:50.568Z,61.00
2018-10-16T14:56:18.896Z,61.30
2018-10-16T14:58:47.223Z,60.30
2018-10-16T15:01:15.541Z,61.40
2018-10-16T15:03:44.338Z,61.30
2018-10-16T15:06:12.915Z,61.40
2018-10-16T15:08:41.650Z,61.50
2018-10-16T15:11:10.015Z,61.30
2018-10-16T15:13:38.410Z,60.90
2018-10-16T15:16:07.692Z,60.90
2018-10-16T15:18:36.186Z,62.80
2018-10-16T15:21:05.285Z,63.10
2018-10-16T15:23:33.770Z,64.40
2018-10-16T15:26:02.675Z,65.20
2018-10-16T15:28:31.491Z,66.70
2018-10-16T15:31:00.092Z,69.70
2018-10-16T15:33:29.287Z,70.30
2018-10-16T15:35:59.167Z,71.00
2018-10-16T15:38:27.648Z,72.90
2018-10-16T15:40:57.995Z,70.20
2018-10-16T15:43:26.468Z,71.70
2018-10-16T15:45:54.790Z,70.80
2018-10-16T15:48:23.584Z,70.50
2018-10-16T15:50:52.369Z,71.30
2018-10-16T15:53:20.609Z,71.40
2018-10-16T15:55:49.526Z,73.20
2018-10-16T15:58:17.989Z,74.70
2018-10-16T16:00:46.650Z,75.90
2018-10-16T16:03:16.729Z,77.60
2018-10-16T16:05:44.957Z,79.90
2018-10-16T16:08:13.284Z,79.50
2018-10-16T16:10:46.473Z,80.70
2018-10-16T16:13:14.734Z,81.60
2018-10-16T16:15:43.166Z,82.10
2018-10-16T16:18:11.590Z,83.10
2018-10-16T16:20:44.113Z,84.30
2018-10-16T16:23:12.400Z,86.30
2018-10-16T16:25:40.953Z,86.80
2018-10-16T16:28:09.341Z,87.90
2018-10-16T16:30:38.157Z,89.30
2018-10-16T16:33:07.763Z,89.10
2018-10-16T16:35:35.972Z,89.80
2018-10-16T16:38:05.072Z,90.20
2018-10-16T16:40:33.346Z,90.70
2018-10-16T16:43:01.601Z,91.40
2018-10-16T16:45:30.234Z,91.30
2018-10-16T16:47:59.713Z,91.80
2018-10-16T16:50:28.153Z,91.80
2018-10-16T16:52:57.093Z,91.80
2018-10-16T16:55:25.350Z,92.00
2018-10-16T16:57:53.695Z,92.60
2018-10-16T17:00:22.345Z,93.10
2018-10-16T17:02:50.799Z,93.00
2018-10-16T17:05:19.085Z,93.70
2018-10-16T17:07:47.347Z,93.90
2018-10-16T17:10:16.825Z,94.30
2018-10-16T17:12:45.366Z,94.30
2018-10-16T17:15:14.832Z,94.60
2018-10-16T17:17:43.918Z,94.50
2018-10-16T17:20:12.505Z,94.60
2018-10-16T17:22:44.409Z,95.00
2018-10-16T17:25:15.457Z,94.90
2018-10-16T17:27:47.285Z,94.90
2018-10-16T17:30:16.477Z,94.90
2018-10-16T17:32:46.489Z,95.00
2018-10-16T17:35:15.893Z,95.30
2018-10-16T17:37:44.196Z,95.70
2018-10-16T17:40:14.805Z,96.00
2018-10-16T17:42:44.869Z,96.00
2018-10-16T17:45:14.598Z,95.80
2018-10-16T17:47:42.904Z,96.30
2018-10-16T17:50:12.968Z,96.40
2018-10-16T17:52:41.553Z,96.50
2018-10-16T17:55:15.058Z,96.00
2018-10-16T17:57:48.434Z,96.20
2018-10-16T18:00:19.097Z,96.40
2018-10-16T18:02:47.565Z,96.70
2018-10-16T18:05:19.641Z,96.50
2018-10-16T18:07:53.064Z,96.90
2018-10-16T18:10:21.506Z,97.30
2018-10-16T18:12:50.393Z,97.30
2018-10-16T18:15:20.302Z,97.30
2018-10-16T18:17:48.640Z,97.20
2018-10-16T18:20:17.197Z,97.30
2018-10-16T18:22:46.819Z,97.80
2018-10-16T18:25:15.375Z,97.70
2018-10-16T18:27:44.646Z,97.90
2018-10-16T18:30:13.334Z,97.90
2018-10-16T18:32:41.992Z,98.00
2018-10-16T18:35:10.854Z,98.20
2018-10-16T18:37:40.148Z,98.50
2018-10-16T18:40:10.913Z,98.50
2018-10-16T18:42:40.206Z,98.50
2018-10-16T18:45:10.057Z,98.80
2018-10-16T18:47:39.182Z,98.80
2018-10-16T18:50:09.198Z,99.00
2018-10-16T18:52:37.747Z,99.10
2018-10-16T18:55:08.130Z,99.50
2018-10-16T18:57:36.784Z,99.50
2018-10-16T19:00:05.885Z,99.60
2018-10-16T19:02:36.589Z,99.50
2018-10-16T19:05:05.868Z,99.80
2018-10-16T19:07:34.257Z,99.90
2018-10-16T19:10:03.018Z,99.90
2018-10-16T19:12:31.459Z,99.90
2018-10-16T19:15:02.356Z,99.90
2018-10-16T19:17:30.756Z,99.90
2018-10-16T19:19:59.462Z,99.90
2018-10-16T19:22:27.900Z,99.90
2018-10-16T19:24:56.841Z,99.90
2018-10-16T19:27:26.204Z,99.90
2018-10-16T19:29:56.215Z,99.90
2018-10-16T19:32:24.781Z,99.90
2018-10-16T19:34:53.784Z,99.90
2018-10-16T19:37:26.381Z,99.90
2018-10-16T19:39:55.209Z,99.90
2018-10-16T19:42:23.665Z,99.90
2018-10-16T19:44:52.469Z,99.90
2018-10-16T19:47:20.823Z,99.90
2018-10-16T19:49:49.817Z,99.90
2018-10-16T19:52:18.193Z,99.90
2018-10-16T19:54:47.706Z,99.90
2018-10-16T19:57:16.763Z,99.90
2018-10-16T19:59:45.261Z,99.90
2018-10-16T20:02:13.497Z,99.90
2018-10-16T20:04:42.038Z,99.90
2018-10-16T20:07:10.821Z,99.90
2018-10-16T20:09:39.204Z,99.90
2018-10-16T20:12:09.819Z,99.90
2018-10-16T20:14:38.129Z,99.90
2018-10-16T20:17:06.545Z,99.90
2018-10-16T20:19:35.009Z,99.90
2018-10-16T20:22:03.410Z,99.90
2018-10-16T20:24:31.691Z,99.90
2018-10-16T20:26:59.924Z,99.90
2018-10-16T20:29:28.481Z,99.90
2018-10-16T20:31:56.740Z,99.90
2018-10-16T20:34:25.130Z,99.90
2018-10-16T20:36:53.713Z,99.90
2018-10-16T20:39:22.009Z,99.90
2018-10-16T20:41:50.408Z,99.90
2018-10-16T20:44:18.699Z,99.90
2018-10-16T20:46:48.112Z,99.90
2018-10-16T20:49:16.468Z,99.90
2018-10-16T20:51:44.794Z,99.90
2018-10-16T20:54:13.111Z,99.90
2018-10-16T20:56:41.635Z,99.90
2018-10-16T20:59:10.106Z,99.90
2018-10-16T21:01:38.791Z,99.90
2018-10-16T21:04:07.217Z,99.90
2018-10-16T21:06:35.917Z,99.90
2018-10-16T21:09:05.406Z,99.90
2018-10-16T21:11:33.724Z,99.90
2018-10-16T21:14:04.551Z,99.90
2018-10-16T21:16:32.841Z,99.90
2018-10-16T21:19:02.537Z,99.90
2018-10-16T21:21:30.772Z,99.90
2018-10-16T21:23:59.353Z,99.90
2018-10-16T21:26:28.626Z,99.90
2018-10-16T21:28:56.963Z,99.90
2018-10-16T21:31:25.206Z,99.90
2018-10-16T21:33:53.591Z,99.90
2018-10-16T21:36:21.868Z,99.90
2018-10-16T21:38:50.505Z,99.90
2018-10-16T21:41:18.780Z,99.90
2018-10-16T21:43:47.095Z,99.90
2018-10-16T21:46:15.683Z,99.90
2018-10-16T21:48:43.953Z,99.90
2018-10-16T21:51:12.353Z,99.90
2018-10-16T21:53:40.661Z,99.90
2018-10-16T21:56:08.899Z,99.90
2018-10-16T21:58:37.264Z,99.90
2018-10-16T22:01:09.277Z,99.90
2018-10-16T22:03:37.954Z,99.90
2018-10-16T22:06:06.205Z,99.90
2018-10-16T22:08:34.689Z,99.90
2018-10-16T22:11:03.722Z,99.90
2018-10-16T22:13:31.914Z,99.90
2018-10-16T22:16:00.179Z,99.90
2018-10-16T22:18:28.546Z,99.90
2018-10-16T22:20:56.797Z,99.90
2018-10-16T22:23:25.063Z,99.90
2018-10-16T22:25:53.334Z,99.90
2018-10-16T22:28:21.711Z,99.90
2018-10-16T22:30:50.037Z,99.90
2018-10-16T22:33:18.370Z,99.90
2018-10-16T22:35:46.666Z,99.90
2018-10-16T22:38:14.941Z,99.90
2018-10-16T22:40:43.267Z,99.90
2018-10-16T22:43:11.699Z,99.90
2018-10-16T22:45:39.874Z,99.90
2018-10-16T22:48:08.144Z,99.90
2018-10-16T22:50:36.438Z,99.90
2018-10-16T22:53:04.840Z,99.90
2018-10-16T22:55:33.022Z,99.90
2018-10-16T22:58:01.306Z,99.90
2018-10-16T23:00:29.564Z,99.90
2018-10-16T23:02:57.821Z,99.90
2018-10-16T23:05:26.114Z,99.90
2018-10-16T23:07:54.387Z,99.90
2018-10-16T23:10:22.661Z,99.90
2018-10-16T23:12:56.273Z,99.90
2018-10-16T23:15:24.507Z,99.90
2018-10-16T23:17:52.800Z,99.90
2018-10-16T23:20:21.176Z,99.90
2018-10-16T23:22:49.595Z,99.90
2018-10-16T23:25:17.984Z,99.90
2018-10-16T23:27:46.165Z,99.90
2018-10-16T23:30:14.426Z,99.90
2018-10-16T23:32:42.765Z,99.90
2018-10-16T23:35:11.246Z,99.90
2018-10-16T23:37:39.482Z,99.90
2018-10-16T23:40:07.729Z,99.90
2018-10-16T23:42:36.017Z,99.90
2018-10-16T23:45:04.474Z,99.90
2018-10-16T23:47:32.709Z,99.90
2018-10-16T23:50:01.069Z,99.90
2018-10-16T23:52:29.338Z,99.90
2018-10-16T23:54:57.620Z,99.90
2018-10-16T23:57:25.896Z,99.90
2018-10-16T23:59:54.251Z,99.90
